Time;durP1;ratioP1;P1;durP2;ratioP2;P2;SDS_P1;SDS_P2;PMS_P1;PMS_P2;Temp;Humidity;BMP_temperature;BMP_pressure;BME280_temperature;BME280_humidity;BME280_pressure;Samples;Min_cycle;Max_cycle;Signal;HPM_P1;HPM_P2
2022/02/10 00:03:30;;;;;;;21.10;8.03;;;5.50;99.90;;;;;;5092669;28;20407;-85
2022/02/10 00:05:42;;;;;;;15.60;6.73;;;5.50;99.90;;;;;;5092521;28;20451;-85
2022/02/10 00:20:52;;;;;;;12.77;6.27;;;5.50;99.90;;;;;;5092577;28;20418;-85
2022/02/10 00:23:40;;;;;;;16.37;7.43;;;5.40;99.90;;;;;;5074414;28;20433;-84
2022/02/10 00:34:26;;;;;;;15.00;7.40;;;5.80;99.90;;;;;;5080652;28;20474;-83
2022/02/10 00:37:09;;;;;;;15.90;7.03;;;5.80;99.90;;;;;;5095956;28;20509;-82
2022/02/10 00:39:59;;;;;;;12.53;6.33;;;5.90;99.90;;;;;;5096322;28;20757;-86
2022/02/10 00:42:21;;;;;;;19.13;6.90;;;5.90;99.90;;;;;;5096230;28;20938;-86
2022/02/10 00:44:47;;;;;;;11.73;6.97;;;5.90;99.90;;;;;;5096247;28;20416;-85
2022/02/10 00:47:12;;;;;;;13.60;5.90;;;5.90;99.90;;;;;;5095885;28;20174;-85
2022/02/10 00:49:38;;;;;;;11.57;5.90;;;5.90;99.90;;;;;;5096036;28;20208;-85
2022/02/10 00:52:05;;;;;;;17.47;7.60;;;5.90;99.90;;;;;;5095991;28;20211;-86
2022/02/10 00:54:31;;;;;;;12.87;6.80;;;5.90;99.90;;;;;;5077715;28;20660;-86
2022/02/10 00:56:58;;;;;;;18.53;7.70;;;5.90;99.90;;;;;;5077709;28;20553;-86
2022/02/10 01:10:43;;;;;;;17.27;8.40;;;6.00;99.90;;;;;;5095955;28;20466;-86
2022/02/10 01:29:36;;;;;;;15.90;7.80;;;6.20;99.90;;;;;;5095676;28;20406;-87
2022/02/10 01:32:02;;;;;;;16.70;8.73;;;6.20;99.90;;;;;;5077346;28;20567;-87
2022/02/10 01:34:29;;;;;;;19.47;7.90;;;6.30;99.90;;;;;;5095524;28;20561;-87
2022/02/10 01:36:55;;;;;;;20.13;9.90;;;6.30;99.90;;;;;;5077458;28;20813;-86
2022/02/10 01:39:24;;;;;;;17.73;9.70;;;6.30;99.90;;;;;;5077198;28;20427;-87
2022/02/10 01:42:20;;;;;;;18.33;9.37;;;6.30;99.90;;;;;;5094883;28;20239;-87
2022/02/10 02:03:36;;;;;;;16.97;9.50;;;6.40;99.90;;;;;;5094877;28;20510;-84
2022/02/10 02:06:08;;;;;;;17.83;9.33;;;6.40;99.90;;;;;;5094880;28;20407;-84
2022/02/10 02:08:37;;;;;;;19.37;9.07;;;6.50;99.90;;;;;;5094768;28;20422;-84
2022/02/10 02:11:03;;;;;;;15.57;9.97;;;6.40;99.90;;;;;;5094561;28;20456;-84
2022/02/10 02:13:29;;;;;;;20.00;10.90;;;6.50;99.90;;;;;;5094535;28;20484;-84
2022/02/10 02:15:55;;;;;;;16.70;8.83;;;6.40;99.90;;;;;;5076546;28;20740;-84
2022/02/10 02:18:25;;;;;;;18.90;9.07;;;6.50;99.90;;;;;;5094337;28;20427;-84
2022/02/10 02:20:54;;;;;;;18.33;9.30;;;6.50;99.90;;;;;;5076381;28;20417;-84
2022/02/10 02:23:21;;;;;;;16.13;8.90;;;6.50;99.90;;;;;;5076293;28;20432;-84
2022/02/10 02:25:51;;;;;;;19.70;8.83;;;6.50;99.90;;;;;;5094407;28;20408;-84
2022/02/10 02:28:16;;;;;;;17.50;9.87;;;6.50;99.90;;;;;;5094404;28;20420;-84
2022/02/10 02:30:48;;;;;;;17.70;9.33;;;6.60;99.90;;;;;;5094366;28;20409;-84
2022/02/10 02:36:20;;;;;;;17.80;9.07;;;6.60;99.90;;;;;;5094380;28;20427;-86
2022/02/10 03:08:19;;;;;;;8.30;4.50;;;6.20;99.90;;;;;;5093763;28;20798;-83
2022/02/10 03:13:18;;;;;;;7.20;3.80;;;6.20;99.90;;;;;;5093565;28;20524;-83
2022/02/10 03:21:35;;;;;;;10.23;2.83;;;6.20;99.90;;;;;;5093552;28;20471;-84
2022/02/10 04:02:42;;;;;;;5.50;1.83;;;6.10;99.90;;;;;;5092799;28;20781;-84
2022/02/10 04:07:41;;;;;;;2.90;1.77;;;6.00;99.90;;;;;;5097221;28;20510;-84
2022/02/10 04:15:35;;;;;;;6.03;1.80;;;5.90;99.90;;;;;;5097313;28;20407;-84
2022/02/10 04:18:35;;;;;;;8.13;1.13;;;5.90;99.90;;;;;;5096640;28;20418;-84
2022/02/10 04:20:57;;;;;;;4.50;2.00;;;5.90;99.90;;;;;;5096236;28;20418;-83
2022/02/10 04:24:14;;;;;;;5.60;1.90;;;5.90;99.90;;;;;;5096975;28;20399;-83
2022/02/10 04:26:23;;;;;;;4.87;1.87;;;5.90;99.90;;;;;;5088295;28;20411;-83
2022/02/10 04:32:11;;;;;;;6.83;1.80;;;5.90;99.90;;;;;;5067170;28;20416;-82
2022/02/10 04:37:37;;;;;;;8.70;2.40;;;5.90;99.90;;;;;;5096302;28;20467;-83
2022/02/10 04:41:52;;;;;;;6.03;1.93;;;6.00;99.90;;;;;;5096827;28;20418;-83
2022/02/10 04:54:49;;;;;;;6.40;2.03;;;5.80;99.90;;;;;;5096243;28;20477;-83
2022/02/10 05:07:43;;;;;;;13.47;2.67;;;5.80;99.90;;;;;;5096103;28;20464;-84
2022/02/10 05:13:45;;;;;;;4.73;2.00;;;5.80;99.90;;;;;;5062142;28;20805;-83
2022/02/10 05:16:16;;;;;;;8.90;3.10;;;5.70;99.90;;;;;;5094538;28;20832;-84
2022/02/10 05:32:19;;;;;;;4.50;2.57;;;5.90;99.90;;;;;;5095361;28;20765;-83
2022/02/10 05:34:50;;;;;;;11.37;3.13;;;5.90;99.90;;;;;;5095270;28;20462;-83
2022/02/10 05:37:18;;;;;;;8.40;2.17;;;5.80;99.90;;;;;;5095508;28;20404;-84
2022/02/10 05:39:47;;;;;;;10.27;3.60;;;5.90;99.90;;;;;;5095878;28;20507;-86
2022/02/10 05:44:52;;;;;;;8.93;3.90;;;5.90;99.90;;;;;;5095360;28;20954;-83
2022/02/10 05:47:54;;;;;;;8.60;3.50;;;5.80;99.90;;;;;;5094985;28;20172;-83
2022/02/10 05:53:04;;;;;;;8.57;3.57;;;5.80;99.90;;;;;;5095040;28;20570;-83
2022/02/10 05:55:40;;;;;;;8.63;4.70;;;5.80;99.90;;;;;;5095304;28;20200;-83
2022/02/10 05:58:23;;;;;;;9.63;4.50;;;5.80;99.90;;;;;;5095147;28;20399;-83
2022/02/10 06:41:35;;;;;;;7.13;4.47;;;6.00;99.90;;;;;;5094413;28;20507;-83
2022/02/10 06:53:29;;;;;;;7.73;4.57;;;6.00;99.90;;;;;;5093877;28;20550;-84
2022/02/10 06:56:38;;;;;;;8.10;4.10;;;5.90;99.90;;;;;;5093901;28;20427;-83
2022/02/10 07:04:49;;;;;;;8.00;4.40;;;6.00;99.90;;;;;;5093838;28;20409;-85
2022/02/10 07:10:14;;;;;;;7.73;4.80;;;6.00;99.90;;;;;;5093276;28;20471;-85
2022/02/10 07:48:45;;;;;;;8.63;4.40;;;6.20;99.90;;;;;;5092817;28;20424;-85
2022/02/10 07:54:08;;;;;;;5.83;4.00;;;6.30;99.90;;;;;;5093016;28;20846;-86
2022/02/10 09:04:48;;;;;;;6.40;4.33;;;6.70;99.90;;;;;;5095940;28;20438;-84
2022/02/10 09:07:47;;;;;;;6.60;3.90;;;6.70;99.90;;;;;;5095787;28;20491;-84
2022/02/10 09:10:34;;;;;;;9.90;3.53;;;6.80;99.90;;;;;;5081507;28;20463;-83
2022/02/10 09:24:29;;;;;;;5.43;3.00;;;6.90;99.90;;;;;;5087084;28;20435;-87
2022/02/10 10:01:31;;;;;;;7.37;3.30;;;7.80;99.90;;;;;;5094798;28;20507;-90
2022/02/10 10:04:05;;;;;;;7.60;4.33;;;8.10;99.90;;;;;;5095446;28;20497;-89
2022/02/10 10:06:53;;;;;;;7.30;4.27;;;8.50;99.90;;;;;;5076975;28;20419;-89
2022/02/10 10:09:49;;;;;;;7.53;4.50;;;;;;;;;;5094619;28;20449;-81
2022/02/10 10:12:47;;;;;;;5.67;4.37;;;8.60;99.90;;;;;;5094687;28;20551;-82
2022/02/10 10:21:27;;;;;;;6.60;3.50;;;8.40;99.90;;;;;;5094865;28;20961;-82
2022/02/10 10:57:04;;;;;;;8.60;3.27;;;7.60;99.90;;;;;;5094231;28;20410;-88
2022/02/10 10:59:39;;;;;;;8.40;2.80;;;7.60;99.90;;;;;;5075813;28;20172;-88
2022/02/10 11:22:16;;;;;;;6.80;3.10;;;7.60;99.90;;;;;;5093787;28;20828;-88
2022/02/10 11:36:32;;;;;;;5.23;3.33;;;8.00;99.90;;;;;;5092471;28;20471;-88
2022/02/10 11:39:11;;;;;;;7.70;2.90;;;8.00;99.90;;;;;;5093690;28;20422;-88
2022/02/10 11:42:04;;;;;;;6.80;3.53;;;7.90;99.90;;;;;;5093155;28;20416;-89
2022/02/10 11:44:52;;;;;;;7.27;3.47;;;8.00;99.90;;;;;;5092521;28;20451;-89
2022/02/10 11:47:54;;;;;;;5.17;3.60;;;8.10;99.90;;;;;;5075374;28;20417;-91
2022/02/10 12:39:45;;;;;;;5.70;2.50;;;8.60;99.90;;;;;;5096764;28;20415;-87
2022/02/10 14:09:11;;;;;;;6.93;0.90;;;8.10;99.90;;;;;;5094690;28;20455;-86
2022/02/10 14:12:27;;;;;;;4.47;0.90;;;8.00;99.90;;;;;;5094325;28;20425;-83
2022/02/10 14:14:40;;;;;;;3.80;0.73;;;7.90;99.90;;;;;;5093860;28;20976;-83
2022/02/10 14:17:11;;;;;;;5.07;0.80;;;7.90;99.90;;;;;;5093896;28;20421;-84
2022/02/10 14:19:46;;;;;;;3.33;0.70;;;7.80;99.90;;;;;;5094162;28;20425;-85
2022/02/10 14:27:25;;;;;;;3.87;1.00;;;7.80;99.90;;;;;;5094146;28;20769;-82
2022/02/10 14:29:50;;;;;;;2.03;0.77;;;7.90;99.90;;;;;;5093639;28;20505;-83
2022/02/10 14:32:18;;;;;;;5.07;1.47;;;7.90;99.90;;;;;;5093873;28;20168;-83
2022/02/10 14:34:47;;;;;;;2.23;0.50;;;7.90;99.90;;;;;;5075510;28;20327;-82
2022/02/10 14:37:36;;;;;;;1.93;0.30;;;7.90;99.90;;;;;;5093877;28;20410;-86
2022/02/10 14:40:23;;;;;;;2.13;0.90;;;7.90;99.90;;;;;;5094268;28;20407;-86
2022/02/10 14:43:27;;;;;;;4.20;1.17;;;7.90;99.90;;;;;;5075018;28;20433;-85
2022/02/10 15:11:06;;;;;;;2.80;0.63;;;7.70;99.90;;;;;;5095183;28;20547;-92
2022/02/10 16:17:53;;;;;;;2.63;0.30;;;5.40;99.90;;;;;;5100658;28;20420;-88
2022/02/10 16:20:19;;;;;;;2.17;0.40;;;5.40;99.90;;;;;;5082612;28;20412;-89
2022/02/10 16:22:59;;;;;;;2.23;0.50;;;5.50;99.90;;;;;;5082313;28;20418;-89
2022/02/10 16:25:32;;;;;;;2.50;0.50;;;5.50;99.90;;;;;;5082572;28;20817;-89
2022/02/10 16:28:40;;;;;;;2.40;0.60;;;5.50;99.90;;;;;;5082435;28;20505;-89
2022/02/10 16:30:46;;;;;;;5.17;0.77;;;5.50;99.90;;;;;;5089078;28;20422;-90
2022/02/10 16:33:12;;;;;;;4.83;0.50;;;5.50;99.90;;;;;;5082429;28;20546;-88
2022/02/10 16:35:39;;;;;;;1.77;0.20;;;5.50;99.90;;;;;;5082295;28;20536;-88
2022/02/10 16:38:05;;;;;;;3.23;0.80;;;5.40;99.90;;;;;;5082098;28;20200;-88
2022/02/10 16:40:30;;;;;;;3.60;0.63;;;5.50;99.90;;;;;;5081760;28;20441;-89
2022/02/10 16:42:56;;;;;;;4.00;0.70;;;5.50;99.90;;;;;;5082389;28;20508;-89
2022/02/10 16:45:27;;;;;;;3.00;0.90;;;5.40;99.90;;;;;;5080392;28;20195;-89
2022/02/10 16:47:56;;;;;;;6.30;1.27;;;5.50;99.90;;;;;;5075836;28;20176;-89
2022/02/10 16:50:22;;;;;;;4.03;1.47;;;5.40;99.90;;;;;;5081766;28;20417;-89
2022/02/10 16:52:56;;;;;;;2.77;0.63;;;5.40;99.90;;;;;;5082241;28;20422;-89
2022/02/10 16:55:39;;;;;;;6.43;1.13;;;5.40;99.90;;;;;;5082101;28;20422;-90
2022/02/10 17:01:08;;;;;;;1.80;0.60;;;5.40;99.90;;;;;;5099613;28;20483;-89
2022/02/10 17:15:34;;;;;;;3.30;0.50;;;5.50;99.90;;;;;;5117068;28;20472;-89
2022/02/10 17:20:50;;;;;;;7.17;1.17;;;5.40;99.90;;;;;;5117703;28;20421;-88
2022/02/10 17:25:35;;;;;;;5.00;1.20;;;5.40;99.90;;;;;;5117541;28;20410;-89
2022/02/10 17:28:11;;;;;;;7.07;1.07;;;5.40;99.90;;;;;;5115744;28;20944;-89
2022/02/10 17:36:02;;;;;;;5.23;0.67;;;5.30;99.90;;;;;;5117086;28;20771;-89
2022/02/10 17:41:34;;;;;;;4.47;0.97;;;5.30;99.90;;;;;;5117406;28;20417;-90
2022/02/10 17:45:15;;;;;;;6.50;1.40;;;5.20;99.90;;;;;;5116390;28;20473;-91
2022/02/10 17:47:08;;;;;;;5.20;0.77;;;5.20;99.90;;;;;;5099134;28;20749;-90
2022/02/10 17:52:20;;;;;;;8.67;1.40;;;5.20;99.90;;;;;;5117331;28;20557;-90
2022/02/10 17:54:46;;;;;;;5.20;0.97;;;5.20;99.90;;;;;;5106288;28;20469;-90
2022/02/10 17:57:14;;;;;;;7.23;1.43;;;5.10;99.90;;;;;;5095021;28;20499;-90
2022/02/10 17:59:40;;;;;;;4.40;1.70;;;5.10;99.90;;;;;;5094949;28;20422;-89
2022/02/10 18:02:05;;;;;;;3.17;0.70;;;5.10;99.90;;;;;;5094892;28;20484;-90
2022/02/10 18:04:31;;;;;;;6.93;1.03;;;5.10;99.90;;;;;;5095046;28;20433;-89
2022/02/10 18:06:58;;;;;;;5.80;1.30;;;5.10;99.90;;;;;;5095031;28;20176;-89
2022/02/10 18:14:26;;;;;;;2.20;0.80;;;5.10;99.90;;;;;;5095505;28;20481;-88
2022/02/10 18:19:40;;;;;;;9.77;1.57;;;5.00;99.90;;;;;;5116221;28;20850;-90
2022/02/10 18:28:00;;;;;;;8.80;0.97;;;4.90;99.90;;;;;;5084712;28;20433;-91
2022/02/10 18:30:27;;;;;;;2.60;1.40;;;4.90;99.90;;;;;;5114755;28;20469;-90
2022/02/10 19:08:36;;;;;;;4.90;1.17;;;4.60;99.90;;;;;;5129469;28;20398;-90
2022/02/10 19:11:07;;;;;;;5.80;1.50;;;4.70;99.90;;;;;;5117072;28;20496;-90
2022/02/10 19:13:33;;;;;;;8.60;1.70;;;4.70;99.90;;;;;;5117303;28;20457;-90
2022/02/10 19:15:59;;;;;;;3.80;0.90;;;4.70;99.90;;;;;;5116683;28;20510;-90
2022/02/10 19:18:24;;;;;;;4.30;1.40;;;4.60;99.90;;;;;;5116331;28;20222;-90
2022/02/10 19:20:50;;;;;;;5.90;1.20;;;4.60;99.90;;;;;;5116113;28;20761;-90
2022/02/10 19:23:16;;;;;;;4.63;1.20;;;4.60;99.90;;;;;;5115595;28;20176;-90
2022/02/10 19:25:46;;;;;;;6.50;1.40;;;4.60;99.90;;;;;;5114809;28;20164;-90
2022/02/10 19:28:11;;;;;;;4.07;1.03;;;4.60;99.90;;;;;;5114899;28;20413;-90
2022/02/10 19:30:38;;;;;;;5.20;0.87;;;4.60;99.90;;;;;;5114052;28;20408;-90
2022/02/10 19:33:08;;;;;;;7.00;1.50;;;4.50;99.90;;;;;;5113662;28;20175;-90
2022/02/10 19:35:41;;;;;;;6.50;1.30;;;4.50;99.90;;;;;;5112807;28;20413;-89
2022/02/10 19:38:08;;;;;;;6.00;1.50;;;4.50;99.90;;;;;;5113754;28;20488;-90
2022/02/10 19:40:46;;;;;;;8.63;2.13;;;4.40;99.90;;;;;;5113579;28;20429;-90
2022/02/10 19:43:12;;;;;;;3.80;1.23;;;4.40;99.90;;;;;;5113845;28;20966;-91
2022/02/10 19:45:39;;;;;;;4.87;1.47;;;4.40;99.90;;;;;;5113368;28;20422;-91
2022/02/10 19:48:05;;;;;;;6.63;1.43;;;4.30;99.90;;;;;;5113729;28;20258;-90
2022/02/10 19:50:31;;;;;;;6.47;1.50;;;4.30;99.90;;;;;;5113542;28;20558;-90
2022/02/10 19:53:01;;;;;;;5.17;1.47;;;4.40;99.90;;;;;;5113134;28;20171;-91
2022/02/10 19:55:28;;;;;;;4.50;1.10;;;4.30;99.90;;;;;;5096904;28;20741;-91
2022/02/10 19:58:01;;;;;;;4.83;0.73;;;4.30;99.90;;;;;;5111558;28;20424;-91
2022/02/10 20:00:32;;;;;;;14.13;1.73;;;4.30;99.90;;;;;;5093461;28;20426;-90
2022/02/10 20:02:59;;;;;;;6.83;2.30;;;4.20;99.90;;;;;;5096769;28;20474;-90
2022/02/10 20:05:25;;;;;;;9.50;2.00;;;4.30;99.90;;;;;;5104751;28;20433;-91
2022/02/10 20:07:55;;;;;;;8.50;2.03;;;4.20;99.90;;;;;;5108839;28;20936;-90
2022/02/10 20:10:21;;;;;;;3.70;2.10;;;4.20;99.90;;;;;;5092786;28;20168;-91
2022/02/10 20:12:50;;;;;;;8.07;2.50;;;4.20;99.90;;;;;;5093174;28;20411;-90
2022/02/10 20:15:15;;;;;;;8.43;2.13;;;4.20;99.90;;;;;;5093071;28;20476;-91
2022/02/10 20:17:42;;;;;;;3.97;2.03;;;4.20;99.90;;;;;;5093247;28;20489;-91
2022/02/10 20:20:09;;;;;;;4.20;1.40;;;4.20;99.90;;;;;;5093253;28;20176;-91
2022/02/10 20:22:39;;;;;;;6.30;1.03;;;4.20;99.90;;;;;;5093351;28;20442;-90
2022/02/10 20:25:06;;;;;;;9.53;1.63;;;4.20;99.90;;;;;;5093077;28;20604;-91
2022/02/10 20:27:32;;;;;;;4.77;1.30;;;4.20;99.90;;;;;;5103106;28;20479;-90
2022/02/10 20:29:58;;;;;;;4.27;1.53;;;4.10;99.90;;;;;;5092953;28;20462;-91
2022/02/10 20:32:23;;;;;;;9.53;1.70;;;4.00;99.90;;;;;;5093057;28;20410;-90
2022/02/10 20:34:49;;;;;;;8.73;1.43;;;4.10;99.90;;;;;;5093084;28;20204;-90
2022/02/10 20:37:14;;;;;;;2.50;0.83;;;4.00;99.90;;;;;;5092953;28;20172;-91
2022/02/10 20:39:41;;;;;;;7.27;1.93;;;4.00;99.90;;;;;;5092742;28;20176;-92
2022/02/10 20:42:16;;;;;;;6.93;1.80;;;4.00;99.90;;;;;;5093130;28;20172;-91
2022/02/10 20:44:44;;;;;;;5.60;2.00;;;4.00;99.90;;;;;;5092706;28;20413;-90
2022/02/10 20:47:10;;;;;;;9.97;2.00;;;4.00;99.90;;;;;;5096048;28;20418;-91
2022/02/10 20:49:35;;;;;;;4.20;1.43;;;4.00;99.90;;;;;;5096785;28;20414;-90
2022/02/10 20:52:01;;;;;;;8.40;1.27;;;4.00;99.90;;;;;;5096733;28;20628;-90
2022/02/10 20:54:27;;;;;;;8.00;1.87;;;4.00;99.90;;;;;;5096831;28;20730;-90
2022/02/10 20:56:53;;;;;;;10.13;1.70;;;4.10;99.90;;;;;;5096415;28;20251;-91
2022/02/10 20:59:36;;;;;;;5.80;2.47;;;4.00;99.90;;;;;;5096408;28;20181;-91
2022/02/10 21:02:15;;;;;;;5.67;1.97;;;4.00;99.90;;;;;;5096240;28;20521;-91
2022/02/10 21:09:59;;;;;;;10.70;2.30;;;3.90;99.90;;;;;;5097887;28;20418;-90
2022/02/10 21:12:28;;;;;;;11.10;1.53;;;3.90;99.90;;;;;;5096320;28;20263;-91
2022/02/10 21:14:56;;;;;;;9.67;1.93;;;3.80;99.90;;;;;;5096167;28;20466;-91
2022/02/10 21:17:26;;;;;;;4.43;1.50;;;3.80;99.90;;;;;;5096427;28;20411;-90
2022/02/10 21:19:57;;;;;;;7.97;2.33;;;3.80;99.90;;;;;;5098668;28;20422;-90
2022/02/10 21:22:23;;;;;;;7.23;1.30;;;3.80;99.90;;;;;;5099457;28;20465;-90
2022/02/10 21:24:58;;;;;;;11.00;1.87;;;3.70;99.90;;;;;;5097517;28;20430;-90
2022/02/10 21:27:33;;;;;;;5.97;0.53;;;3.70;99.90;;;;;;5096141;28;20624;-90
2022/02/10 21:30:02;;;;;;;4.20;1.00;;;3.80;99.90;;;;;;5095830;28;20466;-91
2022/02/10 21:32:32;;;;;;;7.33;1.23;;;3.70;99.90;;;;;;5095986;28;20784;-91
2022/02/10 21:40:30;;;;;;;7.53;2.30;;;3.70;99.90;;;;;;5117130;28;20432;-91
2022/02/10 21:59:43;;;;;;;2.10;0.97;;;3.80;99.90;;;;;;5116596;28;20413;-91
2022/02/10 22:06:03;;;;;;;10.50;1.60;;;3.80;99.90;;;;;;5117505;28;20397;-91
2022/02/10 22:08:40;;;;;;;3.40;1.60;;;3.80;99.90;;;;;;5116496;28;20403;-92
2022/02/10 22:16:29;;;;;;;6.43;1.43;;;3.70;99.90;;;;;;5117122;28;20411;-92
2022/02/10 22:21:37;;;;;;;6.23;1.80;;;3.80;99.90;;;;;;5116527;28;20847;-91
2022/02/10 22:24:07;;;;;;;8.83;2.13;;;3.80;99.90;;;;;;5116499;28;20792;-93
2022/02/10 22:26:33;;;;;;;6.87;1.63;;;3.80;99.90;;;;;;5115405;28;20786;-92
2022/02/10 22:36:24;;;;;;;5.57;0.90;;;3.80;99.90;;;;;;5116526;28;20414;-90
2022/02/10 22:38:53;;;;;;;4.27;1.10;;;3.70;99.90;;;;;;5115395;28;20497;-91
2022/02/10 22:41:20;;;;;;;5.63;1.53;;;3.80;99.90;;;;;;5114955;28;20267;-92
2022/02/10 22:43:48;;;;;;;4.03;1.40;;;3.70;99.90;;;;;;5115062;28;20417;-90
2022/02/10 22:46:15;;;;;;;9.60;1.97;;;3.70;99.90;;;;;;5115250;28;20421;-92
2022/02/10 22:48:43;;;;;;;10.70;1.50;;;3.80;99.90;;;;;;5115302;28;20497;-91
2022/02/10 22:51:09;;;;;;;2.83;1.03;;;3.80;99.90;;;;;;5114939;28;20478;-91
2022/02/10 22:53:41;;;;;;;1.50;1.03;;;3.80;99.90;;;;;;5114888;28;20489;-90
2022/02/10 22:56:12;;;;;;;10.20;1.47;;;3.70;99.90;;;;;;5114623;28;20608;-91
2022/02/10 22:58:39;;;;;;;3.57;0.90;;;3.80;99.90;;;;;;5114280;28;20419;-92
2022/02/10 23:01:09;;;;;;;2.07;0.50;;;3.80;99.90;;;;;;5114542;28;20426;-90
2022/02/10 23:03:39;;;;;;;7.40;1.63;;;3.80;99.90;;;;;;5114380;28;20461;-91
2022/02/10 23:06:07;;;;;;;5.67;2.00;;;3.80;99.90;;;;;;5114582;28;20767;-91
2022/02/10 23:08:32;;;;;;;4.80;1.03;;;3.80;99.90;;;;;;5114060;28;20566;-92
2022/02/10 23:10:58;;;;;;;6.50;1.77;;;3.80;99.90;;;;;;5113694;28;20523;-91
2022/02/10 23:13:34;;;;;;;4.87;1.43;;;3.80;99.90;;;;;;5113943;28;20301;-91
2022/02/10 23:16:03;;;;;;;9.30;1.77;;;3.80;99.90;;;;;;5114404;28;20161;-91
2022/02/10 23:18:31;;;;;;;3.53;1.30;;;3.80;99.90;;;;;;5114219;28;20429;-90
2022/02/10 23:20:59;;;;;;;7.57;1.20;;;3.80;99.90;;;;;;5114115;28;20508;-91
2022/02/10 23:23:27;;;;;;;2.17;1.00;;;3.70;99.90;;;;;;5114149;28;20425;-90
2022/02/10 23:25:54;;;;;;;6.20;1.50;;;3.70;99.90;;;;;;5114169;28;20417;-90
2022/02/10 23:28:25;;;;;;;14.83;1.60;;;3.80;99.90;;;;;;5113699;28;20414;-90
2022/02/10 23:30:52;;;;;;;3.30;0.60;;;3.80;99.90;;;;;;5114070;28;20401;-89
2022/02/10 23:38:34;;;;;;;11.53;0.77;;;3.70;99.90;;;;;;5115256;28;20509;-91
2022/02/10 23:43:28;;;;;;;7.47;2.13;;;3.70;99.90;;;;;;5114407;28;20478;-89
2022/02/10 23:45:53;;;;;;;5.77;1.37;;;3.80;99.90;;;;;;5113570;28;20413;-86
2022/02/10 23:48:19;;;;;;;9.93;1.10;;;3.80;99.90;;;;;;5112943;28;20187;-85
2022/02/10 23:50:44;;;;;;;4.50;1.70;;;3.80;99.90;;;;;;5113354;28;20659;-85
2022/02/10 23:53:10;;;;;;;3.20;0.63;;;3.80;99.90;;;;;;5113262;28;20216;-85
2022/02/10 23:55:39;;;;;;;8.47;1.10;;;3.90;99.90;;;;;;5111645;28;20178;-84
